sensor_id;sensor_type;location;lat;lon;timestamp;pressure;altitude;pressure_sealevel;temperature;humidity
15382;BME280;7789;51.364;12.358;2022-12-05T00:00:07;100282.06;;;5.13;100.00
15382;BME280;7789;51.364;12.358;2022-12-05T00:05:38;100283.00;;;5.12;100.00
15382;BME280;7789;51.364;12.358;2022-12-05T00:11:10;100293.09;;;5.17;100.00
15382;BME280;7789;51.364;12.358;2022-12-05T00:16:43;100288.72;;;5.17;100.00
15382;BME280;7789;51.364;12.358;2022-12-05T00:22:08;100284.19;;;5.21;100.00
15382;BME280;7789;51.364;12.358;2022-12-05T00:27:31;100281.59;;;5.21;100.00
15382;BME280;7789;51.364;12.358;2022-12-05T00:33:03;100295.84;;;5.28;100.00
15382;BME280;7789;51.364;12.358;2022-12-05T00:38:42;100293.16;;;5.29;100.00
15382;BME280;7789;51.364;12.358;2022-12-05T00:44:19;100281.88;;;5.30;100.00
15382;BME280;7789;51.364;12.358;2022-12-05T00:49:51;100301.41;;;5.36;100.00
15382;BME280;7789;51.364;12.358;2022-12-05T00:55:18;100291.31;;;5.31;100.00
15382;BME280;7789;51.364;12.358;2022-12-05T01:00:45;100298.72;;;5.37;100.00
15382;BME280;7789;51.364;12.358;2022-12-05T01:06:11;100304.00;;;5.36;100.00
15382;BME280;7789;51.364;12.358;2022-12-05T01:11:35;100293.53;;;5.37;100.00
15382;BME280;7789;51.364;12.358;2022-12-05T01:17:12;100312.41;;;5.39;100.00
15382;BME280;7789;51.364;12.358;2022-12-05T01:22:49;100302.88;;;5.39;100.00
15382;BME280;7789;51.364;12.358;2022-12-05T01:28:20;100294.09;;;5.42;100.00
15382;BME280;7789;51.364;12.358;2022-12-05T01:34:02;100301.75;;;5.43;100.00
15382;BME280;7789;51.364;12.358;2022-12-05T01:39:38;100305.91;;;5.46;100.00
15382;BME280;7789;51.364;12.358;2022-12-05T01:45:05;100311.00;;;5.47;100.00
15382;BME280;7789;51.364;12.358;2022-12-05T01:50:35;100306.38;;;5.52;100.00
15382;BME280;7789;51.364;12.358;2022-12-05T01:56:10;100303.31;;;5.60;100.00
15382;BME280;7789;51.364;12.358;2022-12-05T02:01:45;100307.47;;;5.62;100.00
15382;BME280;7789;51.364;12.358;2022-12-05T02:07:10;100295.59;;;5.58;100.00
15382;BME280;7789;51.364;12.358;2022-12-05T02:12:49;100292.44;;;5.67;100.00
15382;BME280;7789;51.364;12.358;2022-12-05T02:18:32;100313.06;;;5.69;100.00
15382;BME280;7789;51.364;12.358;2022-12-05T02:30:07;100311.97;;;5.73;100.00
15382;BME280;7789;51.364;12.358;2022-12-05T02:35:47;100306.06;;;5.71;100.00
15382;BME280;7789;51.364;12.358;2022-12-05T02:41:21;100300.69;;;5.74;100.00
15382;BME280;7789;51.364;12.358;2022-12-05T02:47:11;100300.41;;;5.78;100.00
15382;BME280;7789;51.364;12.358;2022-12-05T02:52:40;100301.25;;;5.79;100.00
15382;BME280;7789;51.364;12.358;2022-12-05T02:58:22;100300.03;;;5.84;100.00
15382;BME280;7789;51.364;12.358;2022-12-05T03:03:55;100288.53;;;5.88;100.00
15382;BME280;7789;51.364;12.358;2022-12-05T03:09:27;100293.91;;;5.85;100.00
15382;BME280;7789;51.364;12.358;2022-12-05T03:15:01;100301.56;;;5.87;100.00
15382;BME280;7789;51.364;12.358;2022-12-05T03:20:28;100299.41;;;5.93;100.00
15382;BME280;7789;51.364;12.358;2022-12-05T03:26:04;100299.13;;;5.98;100.00
15382;BME280;7789;51.364;12.358;2022-12-05T03:31:39;100308.38;;;6.02;100.00
15382;BME280;7789;51.364;12.358;2022-12-05T03:37:15;100302.38;;;6.01;100.00
15382;BME280;7789;51.364;12.358;2022-12-05T03:42:52;100298.13;;;6.00;100.00
15382;BME280;7789;51.364;12.358;2022-12-05T03:48:29;100289.19;;;6.04;100.00
15382;BME280;7789;51.364;12.358;2022-12-05T03:54:19;100296.69;;;6.09;100.00
15382;BME280;7789;51.364;12.358;2022-12-05T03:59:50;100293.38;;;6.07;100.00
15382;BME280;7789;51.364;12.358;2022-12-05T04:05:18;100302.63;;;6.11;100.00
15382;BME280;7789;51.364;12.358;2022-12-05T04:10:51;100298.16;;;6.13;100.00
15382;BME280;7789;51.364;12.358;2022-12-05T04:16:21;100303.25;;;6.14;100.00
15382;BME280;7789;51.364;12.358;2022-12-05T04:22:02;100307.50;;;6.15;100.00
15382;BME280;7789;51.364;12.358;2022-12-05T04:27:39;100310.84;;;6.17;100.00
15382;BME280;7789;51.364;12.358;2022-12-05T04:33:10;100318.72;;;6.16;100.00
15382;BME280;7789;51.364;12.358;2022-12-05T04:38:48;100326.28;;;6.19;100.00
15382;BME280;7789;51.364;12.358;2022-12-05T04:44:17;100324.25;;;6.24;100.00
15382;BME280;7789;51.364;12.358;2022-12-05T04:49:48;100320.72;;;6.25;100.00
15382;BME280;7789;51.364;12.358;2022-12-05T04:55:25;100332.03;;;6.24;100.00
15382;BME280;7789;51.364;12.358;2022-12-05T05:01:02;100334.63;;;6.24;100.00
15382;BME280;7789;51.364;12.358;2022-12-05T05:06:28;100344.81;;;6.27;100.00
15382;BME280;7789;51.364;12.358;2022-12-05T05:11:52;100345.75;;;6.26;100.00
15382;BME280;7789;51.364;12.358;2022-12-05T05:17:18;100353.41;;;6.27;100.00
15382;BME280;7789;51.364;12.358;2022-12-05T05:22:51;100355.00;;;6.30;100.00
15382;BME280;7789;51.364;12.358;2022-12-05T05:28:17;100350.66;;;6.30;100.00
15382;BME280;7789;51.364;12.358;2022-12-05T05:33:49;100355.84;;;6.30;100.00
15382;BME280;7789;51.364;12.358;2022-12-05T05:39:15;100360.19;;;6.30;100.00
15382;BME280;7789;51.364;12.358;2022-12-05T05:44:42;100367.88;;;6.31;100.00
15382;BME280;7789;51.364;12.358;2022-12-05T05:50:11;100370.47;;;6.31;100.00
15382;BME280;7789;51.364;12.358;2022-12-05T05:55:41;100377.63;;;6.28;100.00
15382;BME280;7789;51.364;12.358;2022-12-05T06:01:07;100381.03;;;6.28;100.00
15382;BME280;7789;51.364;12.358;2022-12-05T06:06:42;100377.63;;;6.28;100.00
15382;BME280;7789;51.364;12.358;2022-12-05T06:12:07;100379.38;;;6.27;100.00
15382;BME280;7789;51.364;12.358;2022-12-05T06:17:35;100385.50;;;6.26;100.00
15382;BME280;7789;51.364;12.358;2022-12-05T06:23:03;100393.28;;;6.26;100.00
15382;BME280;7789;51.364;12.358;2022-12-05T06:28:26;100392.25;;;6.29;100.00
15382;BME280;7789;51.364;12.358;2022-12-05T06:33:58;100391.53;;;6.27;100.00
15382;BME280;7789;51.364;12.358;2022-12-05T06:39:26;100400.31;;;6.24;100.00
15382;BME280;7789;51.364;12.358;2022-12-05T06:44:55;100397.72;;;6.24;100.00
15382;BME280;7789;51.364;12.358;2022-12-05T06:50:21;100412.50;;;6.24;100.00
15382;BME280;7789;51.364;12.358;2022-12-05T06:55:58;100406.38;;;6.25;100.00
15382;BME280;7789;51.364;12.358;2022-12-05T07:01:22;100409.91;;;6.24;100.00
15382;BME280;7789;51.364;12.358;2022-12-05T07:07:03;100415.09;;;6.24;100.00
15382;BME280;7789;51.364;12.358;2022-12-05T07:12:28;100409.16;;;6.22;100.00
15382;BME280;7789;51.364;12.358;2022-12-05T07:17:52;100417.13;;;6.19;100.00
15382;BME280;7789;51.364;12.358;2022-12-05T07:23:21;100417.97;;;6.19;100.00
15382;BME280;7789;51.364;12.358;2022-12-05T07:28:50;100420.44;;;6.21;100.00
15382;BME280;7789;51.364;12.358;2022-12-05T07:34:20;100421.28;;;6.21;100.00
15382;BME280;7789;51.364;12.358;2022-12-05T07:39:44;100425.56;;;6.22;100.00
15382;BME280;7789;51.364;12.358;2022-12-05T07:45:11;100425.47;;;6.24;100.00
15382;BME280;7789;51.364;12.358;2022-12-05T07:50:40;100426.28;;;6.24;100.00
15382;BME280;7789;51.364;12.358;2022-12-05T07:56:09;100432.13;;;6.28;100.00
15382;BME280;7789;51.364;12.358;2022-12-05T08:01:52;100446.69;;;6.30;100.00
15382;BME280;7789;51.364;12.358;2022-12-05T08:07:18;100439.63;;;6.32;100.00
15382;BME280;7789;51.364;12.358;2022-12-05T08:12:44;100450.00;;;6.32;100.00
15382;BME280;7789;51.364;12.358;2022-12-05T08:18:23;100453.91;;;6.25;100.00
15382;BME280;7789;51.364;12.358;2022-12-05T08:23:54;100461.88;;;6.22;100.00
15382;BME280;7789;51.364;12.358;2022-12-05T08:29:19;100466.88;;;6.25;100.00
15382;BME280;7789;51.364;12.358;2022-12-05T08:34:46;100459.00;;;6.27;100.00
15382;BME280;7789;51.364;12.358;2022-12-05T08:40:16;100475.06;;;6.19;100.00
15382;BME280;7789;51.364;12.358;2022-12-05T08:45:48;100466.16;;;6.09;100.00
15382;BME280;7789;51.364;12.358;2022-12-05T08:51:31;100469.00;;;6.19;100.00
15382;BME280;7789;51.364;12.358;2022-12-05T08:56:58;100482.09;;;6.17;100.00
15382;BME280;7789;51.364;12.358;2022-12-05T09:02:31;100488.31;;;6.15;100.00
15382;BME280;7789;51.364;12.358;2022-12-05T09:07:59;100496.22;;;6.13;100.00
15382;BME280;7789;51.364;12.358;2022-12-05T09:13:23;100504.00;;;6.13;100.00
15382;BME280;7789;51.364;12.358;2022-12-05T09:18:47;100510.28;;;6.09;100.00
15382;BME280;7789;51.364;12.358;2022-12-05T09:24:13;100510.94;;;5.99;100.00
15382;BME280;7789;51.364;12.358;2022-12-05T09:29:38;100508.25;;;6.00;100.00
15382;BME280;7789;51.364;12.358;2022-12-05T09:35:01;100507.41;;;6.00;100.00
15382;BME280;7789;51.364;12.358;2022-12-05T09:40:30;100512.41;;;6.03;100.00
15382;BME280;7789;51.364;12.358;2022-12-05T09:45:59;100508.88;;;6.04;100.00
15382;BME280;7789;51.364;12.358;2022-12-05T09:51:35;100507.41;;;6.00;100.00
15382;BME280;7789;51.364;12.358;2022-12-05T09:57:28;100516.31;;;5.96;100.00
15382;BME280;7789;51.364;12.358;2022-12-05T10:03:18;100510.28;;;5.95;100.00
15382;BME280;7789;51.364;12.358;2022-12-05T10:09:02;100509.47;;;5.95;100.00
15382;BME280;7789;51.364;12.358;2022-12-05T10:14:38;100509.72;;;5.90;100.00
15382;BME280;7789;51.364;12.358;2022-12-05T10:20:14;100504.53;;;5.90;100.00
15382;BME280;7789;51.364;12.358;2022-12-05T10:25:39;100512.50;;;5.87;100.00
15382;BME280;7789;51.364;12.358;2022-12-05T10:31:09;100513.53;;;5.85;100.00
15382;BME280;7789;51.364;12.358;2022-12-05T10:36:39;100509.00;;;5.88;100.00
15382;BME280;7789;51.364;12.358;2022-12-05T10:42:12;100507.97;;;5.91;100.00
15382;BME280;7789;51.364;12.358;2022-12-05T10:47:41;100513.25;;;5.89;100.00
15382;BME280;7789;51.364;12.358;2022-12-05T10:53:05;100514.19;;;5.88;100.00
15382;BME280;7789;51.364;12.358;2022-12-05T10:58:36;100510.78;;;5.88;100.00
15382;BME280;7789;51.364;12.358;2022-12-05T11:04:21;100509.38;;;5.82;100.00
15382;BME280;7789;51.364;12.358;2022-12-05T11:09:50;100510.47;;;5.78;100.00
15382;BME280;7789;51.364;12.358;2022-12-05T11:15:24;100523.50;;;5.77;100.00
15382;BME280;7789;51.364;12.358;2022-12-05T11:20:51;100513.91;;;5.79;100.00
15382;BME280;7789;51.364;12.358;2022-12-05T11:26:33;100509.25;;;5.84;100.00
15382;BME280;7789;51.364;12.358;2022-12-05T11:31:56;100515.75;;;5.91;100.00
15382;BME280;7789;51.364;12.358;2022-12-05T11:37:26;100514.84;;;5.92;100.00
15382;BME280;7789;51.364;12.358;2022-12-05T11:43:08;100511.97;;;5.96;100.00
15382;BME280;7789;51.364;12.358;2022-12-05T11:48:52;100514.38;;;5.99;100.00
15382;BME280;7789;51.364;12.358;2022-12-05T11:54:50;100517.44;;;5.92;100.00
15382;BME280;7789;51.364;12.358;2022-12-05T12:00:30;100511.19;;;5.94;100.00
15382;BME280;7789;51.364;12.358;2022-12-05T12:06:02;100501.75;;;5.93;100.00
15382;BME280;7789;51.364;12.358;2022-12-05T12:11:47;100499.16;;;5.93;100.00
15382;BME280;7789;51.364;12.358;2022-12-05T12:17:23;100501.88;;;5.92;100.00
15382;BME280;7789;51.364;12.358;2022-12-05T12:23:33;100501.94;;;5.90;100.00
15382;BME280;7789;51.364;12.358;2022-12-05T12:29:16;100505.28;;;5.92;100.00
15382;BME280;7789;51.364;12.358;2022-12-05T12:35:20;100503.53;;;5.93;100.00
15382;BME280;7789;51.364;12.358;2022-12-05T12:40:48;100509.91;;;5.87;100.00
15382;BME280;7789;51.364;12.358;2022-12-05T12:46:26;100507.41;;;5.86;100.00
15382;BME280;7789;51.364;12.358;2022-12-05T12:51:57;100505.84;;;5.83;100.00
15382;BME280;7789;51.364;12.358;2022-12-05T12:57:50;100506.66;;;5.84;100.00
15382;BME280;7789;51.364;12.358;2022-12-05T13:03:39;100505.94;;;5.82;100.00
15382;BME280;7789;51.364;12.358;2022-12-05T13:09:24;100507.00;;;5.78;100.00
15382;BME280;7789;51.364;12.358;2022-12-05T13:14:57;100513.13;;;5.77;100.00
15382;BME280;7789;51.364;12.358;2022-12-05T13:20:29;100514.97;;;5.75;100.00
15382;BME280;7789;51.364;12.358;2022-12-05T13:25:57;100508.75;;;5.77;100.00
15382;BME280;7789;51.364;12.358;2022-12-05T13:31:35;100511.13;;;5.82;100.00
15382;BME280;7789;51.364;12.358;2022-12-05T13:37:21;100520.84;;;5.78;100.00
15382;BME280;7789;51.364;12.358;2022-12-05T13:43:04;100532.22;;;5.76;100.00
15382;BME280;7789;51.364;12.358;2022-12-05T13:48:35;100534.88;;;5.74;100.00
15382;BME280;7789;51.364;12.358;2022-12-05T13:54:11;100537.47;;;5.74;100.00
15382;BME280;7789;51.364;12.358;2022-12-05T14:00:02;100530.19;;;5.81;100.00
15382;BME280;7789;51.364;12.358;2022-12-05T14:05:50;100531.13;;;5.80;100.00
15382;BME280;7789;51.364;12.358;2022-12-05T14:11:24;100521.72;;;5.77;100.00
15382;BME280;7789;51.364;12.358;2022-12-05T14:16:53;100522.34;;;5.82;100.00
15382;BME280;7789;51.364;12.358;2022-12-05T14:22:41;100524.94;;;5.82;100.00
15382;BME280;7789;51.364;12.358;2022-12-05T14:28:35;100515.38;;;5.83;100.00
15382;BME280;7789;51.364;12.358;2022-12-05T14:34:20;100509.19;;;5.85;100.00
15382;BME280;7789;51.364;12.358;2022-12-05T14:39:50;100525.16;;;5.78;100.00
15382;BME280;7789;51.364;12.358;2022-12-05T14:45:27;100526.78;;;5.80;100.00
15382;BME280;7789;51.364;12.358;2022-12-05T14:50:56;100523.16;;;5.83;100.00
15382;BME280;7789;51.364;12.358;2022-12-05T14:56:21;100521.31;;;5.85;100.00
15382;BME280;7789;51.364;12.358;2022-12-05T15:01:59;100522.03;;;5.87;100.00
15382;BME280;7789;51.364;12.358;2022-12-05T15:07:29;100520.47;;;5.84;100.00
15382;BME280;7789;51.364;12.358;2022-12-05T15:12:57;100516.84;;;5.87;100.00
15382;BME280;7789;51.364;12.358;2022-12-05T15:18:27;100525.47;;;5.87;100.00
15382;BME280;7789;51.364;12.358;2022-12-05T15:24:01;100530.00;;;5.84;100.00
15382;BME280;7789;51.364;12.358;2022-12-05T15:29:36;100531.78;;;5.83;100.00
15382;BME280;7789;51.364;12.358;2022-12-05T15:35:04;100526.09;;;5.77;100.00
15382;BME280;7789;51.364;12.358;2022-12-05T15:40:33;100528.53;;;5.80;100.00
15382;BME280;7789;51.364;12.358;2022-12-05T15:46:17;100519.09;;;5.79;100.00
15382;BME280;7789;51.364;12.358;2022-12-05T15:51:47;100525.25;;;5.76;100.00
15382;BME280;7789;51.364;12.358;2022-12-05T15:57:27;100520.97;;;5.61;100.00
15382;BME280;7789;51.364;12.358;2022-12-05T16:02:56;100522.72;;;5.47;100.00
15382;BME280;7789;51.364;12.358;2022-12-05T16:08:24;100528.72;;;5.34;100.00
15382;BME280;7789;51.364;12.358;2022-12-05T16:13:58;100527.66;;;5.22;100.00
15382;BME280;7789;51.364;12.358;2022-12-05T16:19:24;100525.84;;;5.09;100.00
15382;BME280;7789;51.364;12.358;2022-12-05T16:25:01;100527.31;;;4.99;100.00
15382;BME280;7789;51.364;12.358;2022-12-05T16:30:30;100528.66;;;4.90;100.00
15382;BME280;7789;51.364;12.358;2022-12-05T16:35:55;100535.19;;;4.82;100.00
15382;BME280;7789;51.364;12.358;2022-12-05T16:41:31;100537.34;;;4.74;100.00
15382;BME280;7789;51.364;12.358;2022-12-05T16:46:59;100543.03;;;4.65;100.00
15382;BME280;7789;51.364;12.358;2022-12-05T16:52:29;100547.66;;;4.60;100.00
15382;BME280;7789;51.364;12.358;2022-12-05T16:57:55;100559.66;;;4.61;100.00
15382;BME280;7789;51.364;12.358;2022-12-05T17:03:21;100561.66;;;4.71;100.00
15382;BME280;7789;51.364;12.358;2022-12-05T17:08:55;100563.91;;;4.77;100.00
15382;BME280;7789;51.364;12.358;2022-12-05T17:14:28;100566.09;;;4.85;100.00
15382;BME280;7789;51.364;12.358;2022-12-05T17:19:51;100558.31;;;4.85;100.00
15382;BME280;7789;51.364;12.358;2022-12-05T17:25:31;100565.91;;;4.88;100.00
15382;BME280;7789;51.364;12.358;2022-12-05T17:31:01;100571.94;;;4.88;100.00
15382;BME280;7789;51.364;12.358;2022-12-05T17:36:26;100576.38;;;4.86;100.00
15382;BME280;7789;51.364;12.358;2022-12-05T17:41:52;100578.97;;;4.86;100.00
15382;BME280;7789;51.364;12.358;2022-12-05T17:47:21;100580.03;;;4.98;100.00
15382;BME280;7789;51.364;12.358;2022-12-05T17:52:47;100598.78;;;5.01;100.00
15382;BME280;7789;51.364;12.358;2022-12-05T17:58:28;100589.84;;;5.07;100.00
15382;BME280;7789;51.364;12.358;2022-12-05T18:03:53;100589.44;;;5.14;100.00
15382;BME280;7789;51.364;12.358;2022-12-05T18:09:22;100589.69;;;5.10;100.00
15382;BME280;7789;51.364;12.358;2022-12-05T18:14:46;100578.56;;;5.08;100.00
15382;BME280;7789;51.364;12.358;2022-12-05T18:20:14;100577.56;;;5.10;100.00
15382;BME280;7789;51.364;12.358;2022-12-05T18:25:40;100598.22;;;5.12;100.00
15382;BME280;7789;51.364;12.358;2022-12-05T18:31:15;100593.03;;;5.12;100.00
15382;BME280;7789;51.364;12.358;2022-12-05T18:36:39;100590.59;;;5.09;100.00
15382;BME280;7789;51.364;12.358;2022-12-05T18:42:28;100605.72;;;5.16;100.00
15382;BME280;7789;51.364;12.358;2022-12-05T18:47:57;100604.06;;;5.15;100.00
15382;BME280;7789;51.364;12.358;2022-12-05T18:53:47;100600.28;;;5.21;100.00
15382;BME280;7789;51.364;12.358;2022-12-05T18:59:18;100610.28;;;5.27;100.00
15382;BME280;7789;51.364;12.358;2022-12-05T19:04:44;100609.97;;;5.33;100.00
15382;BME280;7789;51.364;12.358;2022-12-05T19:10:12;100618.38;;;5.36;100.00
15382;BME280;7789;51.364;12.358;2022-12-05T19:15:35;100609.53;;;5.40;100.00
15382;BME280;7789;51.364;12.358;2022-12-05T19:21:02;100605.19;;;5.40;100.00
15382;BME280;7789;51.364;12.358;2022-12-05T19:26:34;100598.06;;;5.44;100.00
15382;BME280;7789;51.364;12.358;2022-12-05T19:32:06;100605.66;;;5.47;100.00
15382;BME280;7789;51.364;12.358;2022-12-05T19:37:31;100604.47;;;5.52;100.00
15382;BME280;7789;51.364;12.358;2022-12-05T19:42:58;100596.53;;;5.55;100.00
15382;BME280;7789;51.364;12.358;2022-12-05T19:48:26;100606.06;;;5.55;100.00
15382;BME280;7789;51.364;12.358;2022-12-05T19:53:50;100609.47;;;5.55;100.00
15382;BME280;7789;51.364;12.358;2022-12-05T19:59:15;100613.56;;;5.59;100.00
15382;BME280;7789;51.364;12.358;2022-12-05T20:04:40;100611.72;;;5.61;100.00
15382;BME280;7789;51.364;12.358;2022-12-05T20:10:04;100611.38;;;5.67;100.00
15382;BME280;7789;51.364;12.358;2022-12-05T20:15:31;100607.84;;;5.68;100.00
15382;BME280;7789;51.364;12.358;2022-12-05T20:21:10;100599.81;;;5.73;100.00
15382;BME280;7789;51.364;12.358;2022-12-05T20:26:36;100595.28;;;5.76;100.00
15382;BME280;7789;51.364;12.358;2022-12-05T20:32:02;100604.72;;;5.77;100.00
15382;BME280;7789;51.364;12.358;2022-12-05T20:37:27;100605.53;;;5.79;100.00
15382;BME280;7789;51.364;12.358;2022-12-05T20:42:55;100601.91;;;5.82;100.00
15382;BME280;7789;51.364;12.358;2022-12-05T20:48:32;100592.56;;;5.79;100.00
15382;BME280;7789;51.364;12.358;2022-12-05T20:54:02;100605.41;;;5.81;100.00
15382;BME280;7789;51.364;12.358;2022-12-05T20:59:28;100601.81;;;5.83;100.00
15382;BME280;7789;51.364;12.358;2022-12-05T21:05:08;100586.88;;;5.87;100.00
15382;BME280;7789;51.364;12.358;2022-12-05T21:10:47;100582.63;;;5.86;100.00
15382;BME280;7789;51.364;12.358;2022-12-05T21:16:12;100585.88;;;5.89;100.00
15382;BME280;7789;51.364;12.358;2022-12-05T21:21:40;100580.69;;;5.89;100.00
15382;BME280;7789;51.364;12.358;2022-12-05T21:27:08;100586.06;;;5.86;100.00
15382;BME280;7789;51.364;12.358;2022-12-05T21:32:37;100588.47;;;5.89;100.00
15382;BME280;7789;51.364;12.358;2022-12-05T21:38:05;100577.34;;;5.87;100.00
15382;BME280;7789;51.364;12.358;2022-12-05T21:43:32;100568.66;;;5.88;100.00
15382;BME280;7789;51.364;12.358;2022-12-05T21:49:05;100561.78;;;5.87;100.00
15382;BME280;7789;51.364;12.358;2022-12-05T21:54:31;100569.50;;;5.89;100.00
15382;BME280;7789;51.364;12.358;2022-12-05T21:59:57;100563.38;;;5.90;100.00
15382;BME280;7789;51.364;12.358;2022-12-05T22:05:25;100570.44;;;5.88;100.00
15382;BME280;7789;51.364;12.358;2022-12-05T22:11:03;100570.31;;;5.89;100.00
15382;BME280;7789;51.364;12.358;2022-12-05T22:16:28;100570.31;;;5.89;100.00
15382;BME280;7789;51.364;12.358;2022-12-05T22:21:53;100572.91;;;5.89;100.00
15382;BME280;7789;51.364;12.358;2022-12-05T22:27:29;100565.13;;;5.89;100.00
15382;BME280;7789;51.364;12.358;2022-12-05T22:32:56;100569.31;;;5.92;100.00
15382;BME280;7789;51.364;12.358;2022-12-05T22:38:18;100563.28;;;5.91;100.00
15382;BME280;7789;51.364;12.358;2022-12-05T22:43:46;100563.94;;;5.95;100.00
15382;BME280;7789;51.364;12.358;2022-12-05T22:49:10;100562.25;;;5.94;100.00
15382;BME280;7789;51.364;12.358;2022-12-05T22:54:53;100555.22;;;5.96;100.00
15382;BME280;7789;51.364;12.358;2022-12-05T23:00:21;100546.50;;;5.97;100.00
15382;BME280;7789;51.364;12.358;2022-12-05T23:05:46;100547.25;;;5.99;100.00
15382;BME280;7789;51.364;12.358;2022-12-05T23:11:10;100540.31;;;5.99;100.00
15382;BME280;7789;51.364;12.358;2022-12-05T23:16:41;100534.28;;;5.99;100.00
15382;BME280;7789;51.364;12.358;2022-12-05T23:22:05;100533.28;;;6.01;100.00
15382;BME280;7789;51.364;12.358;2022-12-05T23:27:30;100534.09;;;6.02;100.00
15382;BME280;7789;51.364;12.358;2022-12-05T23:32:56;100517.72;;;6.01;100.00
15382;BME280;7789;51.364;12.358;2022-12-05T23:38:20;100509.06;;;6.01;100.00
15382;BME280;7789;51.364;12.358;2022-12-05T23:43:54;100513.53;;;5.99;100.00
15382;BME280;7789;51.364;12.358;2022-12-05T23:49:25;100499.53;;;6.01;100.00
15382;BME280;7789;51.364;12.358;2022-12-05T23:54:50;100501.47;;;5.98;100.00
